Cape Canaveral AFS Skid Strip Cocoa Beach US
ICAO: KXMR
IATA: XMR
Category: Medium
Scheduled Services: No

Elevation: 10 ft
TransAlt. 18000 ft.

Airport Communications:
ORLANDO APP/DEP:134.95
PMSV METRO:344.6
CAPE TWR:118.625
:239.05

KXMR Zoom In..

Runways:

(A) RW 13 length 10000 ft width 200 ft
---- / hdg 131

(B) RW 31 length 10000 ft width 200 ft
---- / hdg 311

Location; KXMR
Day. 22 / Time. 23.56 Zulu
* Altimeter: 30.06
* Temperature: 21° c. 69.8°f.
* Wind from: 120° Speed 09 kn.
Dewpoint: 18° c.
Visibility: 10 Statute Miles.
Clouds: Clear (automated report).

KXMR 222356Z AUTO 12009KT 10SM CLR 21/18 A3006 RMK AO2 SLP182 T02050184 10250 20205 50005


Wind From 120°
Speed 09 kn.

YouTube Music Video
 
jpsmedia.com for Web Design  worldairports.se 2018   terms of use